Spokane, WA (99202)

2:03 PM PDT on September 01, 2014 (GMT -0700)
Lincoln Heights | Change Station
CLOSE
Current Station
Personal Weather Station
Location: Spokane, WA
Elevation: 2208 ft
Nearby Weather Stations

Elev 2208 ft 47.64 °N, 117.36 °W | Updated 11 seconds ago

Scattered Clouds
Scattered Clouds
75.7 °F
Feels Like 77 °F
N
0.0
Wind Variable Wind from SSW
Gusts 11.6 mph

Today
High -- | Low -- °F
--% Chance of Precip.
Yesterday
High -- | Low -- °F
Precip. -- in
6:08 AM 7:29 PM
Waxing Crescent, 44% visible
Pressure 30.00 in
Visibility 10.0 miles
Clouds Scattered Clouds 7000 ft
Heat Index 77 °F
Dew Point 44 °F
Humidity 33%
Rainfall 0.00 in
Snow Depth 1 in
UV 6 out of 12
Pollen 6.50 out of 12
PM2.5 Good
Flu Activity Not available.
METAR KSFF 012053Z 24007G17KT 10SM SCT070 23/03 A3002 RMK AO2 SLP158 T02280028 58013

More Conditions Fewer Conditions

Pressure 30.00 in
Visibility 10.0 miles
Clouds Scattered Clouds 7000 ft
Heat Index 77 °F
Dew Point 44 °F
Humidity 33%
Rainfall 0.00 in
Snow Depth 1 in
UV 6 out of 12
Pollen 6.50 out of 12
PM2.5 Good
Flu Activity Not available.
METAR KSFF 012053Z 24007G17KT 10SM SCT070 23/03 A3002 RMK AO2 SLP158 T02280028 58013

More Conditions Fewer Conditions

10-Day Weather Forecast

Almanac

Astronomy

Sep. 01, 2014 Rise Set
Actual Time 6:08 AM PDT 7:29 PM PDT
Civil Twilight 5:36 AM PDT 8:01 PM PDT
Nautical Twilight 4:57 AM PDT 8:40 PM PDT
Astronomical Twilight 4:15 AM PDT 9:21 PM PDT
Moon 1:27 PM PDT 11:05 PM PDT
Length of Visible Light 14h 25m
Length of Day
13h 21m
Tomorrow will be 3m 20s shorter.
Waxing Crescent, 44% of the Moon is Illuminated
Today
Waxing Crescent
Sep 2
First Quarter
Sep 8
Full
Sep 15
Last Quarter
Sep 24
New

Today's Extremes

State Highs State Lows

Community

WunderPhotos

Upload Photos

1,749,407 photos uploaded!

WunderBlogs® & News

Nearby

Air Quality

  Air Quality AQ Index Pollutant
Yesterday Good
OZONE
Yesterday Good
PM10
Current Good
PM2.5
Monday Good
PM10
Tuesday Good
PM2.5

Snow Depth

Station Depth Elevation
Quartz Peak 1 in 4700 ft
Moses Mountain 0 in 5300 ft
Sentinel Butte 0 in 4920 ft
Sourdough Gulch 0 in 4000 ft
Touchet 0 in 5530 ft

Earthquake Activity

City Distance Mag. Time & Date
No recent earthquake activity has been reported nearby.
Minimum magnitude displayed is 2.5.

Coastal Water Temperatures

Place Temperature
No Stations Reporting

Nearby Weather Stations